Urb Garcia, Puerto Rico
Current Conditions -  °F | °C
As of 11:50 PM on Thursday 20 Nov 2014 (Local Time) from TJBQ Reporting Station
Clear Clear  
Wind Chill: 73°   Ceiling: Unl
Heat Index: 73°   Visibility: 10mi
Dew Point: 70°   Wind: 3mph
Humidity: 88%   Direction: 150°SSE
Pressure: 30.04"   Gusts: NA
Location:  18.4739°N, 66.7295°W
Report Text: TJBQ 210350Z 15003KT 10SM SKC 23/21 A3004 RMK RWY08 ATIS O
Loading
Personal Weather Stations






























Interactive Weather Map New forecast layout! Learn more

10-Day Weather Forecast

Advertisements
Track Severe Weather on mobile